Time;durP1;ratioP1;P1;durP2;ratioP2;P2;SDS_P1;SDS_P2;PMS_P1;PMS_P2;Temp;Humidity;BMP_temperature;BMP_pressure;BME280_temperature;BME280_humidity;BME280_pressure;Samples;Min_cycle;Max_cycle;Signal;HPM_P1;HPM_P2
2023/02/12 00:01:39;;;;;;;24.90;11.20;;;;;;;-1.56;100.00;98792.50;107090;1274;25921;-69
2023/02/12 00:04:08;;;;;;;28.00;11.30;;;;;;;-1.54;100.00;98790.02;107083;1275;23617;-69
2023/02/12 00:06:39;;;;;;;25.80;11.40;;;;;;;-1.51;100.00;98788.05;107006;1275;26519;-69
2023/02/12 00:09:07;;;;;;;24.10;10.50;;;;;;;-1.48;100.00;98779.34;107072;1259;22513;-71
2023/02/12 00:11:37;;;;;;;24.40;10.40;;;;;;;-1.45;100.00;98772.73;107060;1275;25357;-70
2023/02/12 00:14:06;;;;;;;21.60;9.70;;;;;;;-1.42;100.00;98770.14;107025;1275;25249;-69
2023/02/12 00:16:36;;;;;;;24.00;10.30;;;;;;;-1.40;100.00;98768.34;106428;1275;1002975;-70
2023/02/12 00:19:04;;;;;;;21.70;10.10;;;;;;;-1.37;100.00;98762.16;107067;1275;22654;-71
2023/02/12 00:21:34;;;;;;;22.90;9.40;;;;;;;-1.37;100.00;98764.23;107103;1275;25607;-70
2023/02/12 00:24:03;;;;;;;26.10;10.80;;;;;;;-1.36;100.00;98775.50;107043;1275;26525;-70
2023/02/12 00:26:32;;;;;;;22.30;9.40;;;;;;;-1.37;100.00;98780.86;106379;1275;1003640;-70
2023/02/12 00:29:01;;;;;;;23.00;10.20;;;;;;;-1.38;100.00;98783.21;106458;1275;1003052;-70
2023/02/12 00:31:30;;;;;;;23.40;9.50;;;;;;;-1.38;100.00;98788.92;107110;1275;22544;-70
2023/02/12 00:33:59;;;;;;;21.50;10.40;;;;;;;-1.39;100.00;98791.07;107048;1275;26523;-69
2023/02/12 00:36:29;;;;;;;21.80;10.20;;;;;;;-1.39;100.00;98794.47;107026;1275;25423;-69
2023/02/12 00:38:58;;;;;;;28.20;10.80;;;;;;;-1.40;100.00;98797.70;107069;1275;24270;-68
2023/02/12 00:41:27;;;;;;;26.60;10.70;;;;;;;-1.41;100.00;98806.48;106820;1275;25246;-69
2023/02/12 00:43:55;;;;;;;24.40;9.80;;;;;;;-1.42;100.00;98808.52;106319;1275;1003744;-69
2023/02/12 00:46:24;;;;;;;23.00;10.00;;;;;;;-1.44;100.00;98812.95;107005;1275;26712;-70
2023/02/12 00:48:54;;;;;;;18.60;8.50;;;;;;;-1.45;100.00;98819.92;106957;1275;25376;-69
2023/02/12 00:51:23;;;;;;;20.40;9.30;;;;;;;-1.47;100.00;98818.11;107073;1275;26498;-69
2023/02/12 00:53:52;;;;;;;20.10;8.70;;;;;;;-1.49;100.00;98823.43;106886;1274;26048;-69
2023/02/12 00:56:21;;;;;;;21.00;9.20;;;;;;;-1.50;100.00;98823.83;107094;1275;25297;-68
2023/02/12 00:58:50;;;;;;;23.50;10.30;;;;;;;-1.52;100.00;98824.35;106934;1275;22563;-69
2023/02/12 01:01:18;;;;;;;22.50;8.40;;;;;;;-1.53;100.00;98826.55;107050;1275;22799;-71
2023/02/12 01:03:47;;;;;;;22.70;9.50;;;;;;;-1.55;100.00;98830.90;107108;1275;25275;-71
2023/02/12 01:06:16;;;;;;;24.20;9.30;;;;;;;-1.55;100.00;98835.55;106994;1275;26029;-69
2023/02/12 01:08:50;;;;;;;22.40;9.40;;;;;;;-1.57;100.00;98839.73;106142;1274;1003023;-69
2023/02/12 01:11:19;;;;;;;21.30;8.70;;;;;;;-1.57;100.00;98843.30;107093;1275;22553;-69
2023/02/12 01:13:50;;;;;;;19.50;8.70;;;;;;;-1.59;100.00;98849.27;106967;1275;25472;-70
2023/02/12 01:16:21;;;;;;;22.40;8.50;;;;;;;-1.59;100.00;98854.26;106315;1275;1003445;-69
2023/02/12 01:18:51;;;;;;;21.40;8.50;;;;;;;-1.59;100.00;98853.49;107100;1275;25900;-69
2023/02/12 01:21:28;;;;;;;22.00;9.60;;;;;;;-1.59;100.00;98857.96;106360;1274;1003045;-69
2023/02/12 01:23:56;;;;;;;19.70;7.80;;;;;;;-1.59;100.00;98864.70;106915;1275;22509;-69
2023/02/12 01:26:25;;;;;;;19.70;7.70;;;;;;;-1.61;100.00;98866.73;107068;1275;25469;-69
2023/02/12 01:29:01;;;;;;;22.50;8.30;;;;;;;-1.62;100.00;98870.73;107100;1275;25313;-70
2023/02/12 01:31:31;;;;;;;22.90;8.20;;;;;;;-1.63;100.00;98877.15;106943;1275;25408;-70
2023/02/12 01:34:01;;;;;;;16.70;7.70;;;;;;;-1.63;100.00;98887.22;106919;1275;22704;-72
2023/02/12 01:36:31;;;;;;;18.40;8.20;;;;;;;-1.63;100.00;98878.79;106410;1274;1003790;-70
2023/02/12 01:39:01;;;;;;;18.30;7.80;;;;;;;-1.65;100.00;98882.30;106280;1275;1003459;-70
2023/02/12 01:41:35;;;;;;;18.60;7.40;;;;;;;-1.67;100.00;98883.17;106952;1275;24330;-70
2023/02/12 01:44:15;;;;;;;15.70;7.60;;;;;;;-1.69;100.00;98890.54;106235;1275;1003712;-71
2023/02/12 01:46:47;;;;;;;;;;;;;;;-1.70;100.00;98894.69;107061;1274;25383;-68
2023/02/12 01:49:31;;;;;;;15.80;6.60;;;;;;;-1.70;100.00;98895.22;106301;1275;1002915;-69
2023/02/12 01:52:10;;;;;;;18.80;7.20;;;;;;;-1.73;100.00;98891.92;106978;1275;24362;-72
2023/02/12 01:54:39;;;;;;;19.00;7.30;;;;;;;-1.77;100.00;98895.54;106345;1275;1003059;-69
2023/02/12 01:57:09;;;;;;;17.20;7.00;;;;;;;-1.78;100.00;98900.45;106972;1275;22643;-70
2023/02/12 01:59:39;;;;;;;18.70;7.50;;;;;;;-1.80;100.00;98904.11;106861;1275;25415;-69
2023/02/12 02:02:08;;;;;;;17.30;6.80;;;;;;;-1.81;100.00;98900.86;106934;1275;25420;-69
2023/02/12 02:04:44;;;;;;;16.90;6.70;;;;;;;-1.83;100.00;98900.67;106999;1275;22639;-68
2023/02/12 02:07:17;;;;;;;17.20;6.90;;;;;;;-1.83;100.00;98909.17;106868;1275;25265;-69
2023/02/12 02:09:46;;;;;;;15.30;6.80;;;;;;;-1.84;100.00;98907.46;107032;1275;25430;-69
2023/02/12 02:15:04;;;;;;;16.90;7.30;;;;;;;-1.87;100.00;98903.14;106167;1275;1002923;-69
2023/02/12 02:17:52;;;;;;;18.50;7.70;;;;;;;-1.88;100.00;98904.23;107103;1275;23773;-70
2023/02/12 02:20:41;;;;;;;17.00;6.90;;;;;;;-1.88;100.00;98905.98;106980;1275;22524;-69
2023/02/12 02:23:28;;;;;;;17.00;7.20;;;;;;;-1.88;100.00;98908.13;106152;1275;1002924;-70
2023/02/12 02:26:15;;;;;;;16.80;6.60;;;;;;;-1.89;100.00;98913.30;106215;1275;1003046;-69
2023/02/12 02:28:53;;;;;;;15.20;6.50;;;;;;;-1.90;100.00;98915.31;106296;1275;1003711;-70
2023/02/12 02:31:36;;;;;;;17.20;7.00;;;;;;;-1.91;100.00;98912.59;107001;1275;25249;-70
2023/02/12 02:34:22;;;;;;;16.80;7.20;;;;;;;-1.92;100.00;98906.85;106310;1275;1003481;-69
2023/02/12 02:36:54;;;;;;;17.00;7.10;;;;;;;-1.94;100.00;98905.73;106954;1275;24224;-69
2023/02/12 02:39:37;;;;;;;15.50;6.90;;;;;;;-1.96;100.00;98908.92;106961;1275;22653;-69
2023/02/12 02:42:10;;;;;;;19.30;7.90;;;;;;;-1.97;100.00;98915.86;107025;1275;25433;-69
2023/02/12 02:44:55;;;;;;;15.90;7.20;;;;;;;-1.98;100.00;98922.84;106988;1275;25250;-69
2023/02/12 02:47:30;;;;;;;16.20;7.30;;;;;;;-2.00;100.00;98921.98;107028;1275;23890;-69
2023/02/12 02:50:05;;;;;;;17.70;7.70;;;;;;;-2.04;100.00;98929.46;106998;1275;22530;-69
2023/02/12 02:52:51;;;;;;;18.50;7.10;;;;;;;-2.06;100.00;98935.48;106226;1275;1003290;-69
2023/02/12 02:55:21;;;;;;;16.60;7.50;;;;;;;-2.07;100.00;98938.91;106309;1275;1003561;-69
2023/02/12 02:58:01;;;;;;;16.80;7.00;;;;;;;-2.08;100.00;98932.83;106915;1274;23890;-69
2023/02/12 03:00:34;;;;;;;17.80;7.60;;;;;;;-2.11;100.00;98925.58;107028;1274;24276;-70
2023/02/12 03:03:42;;;;;;;20.30;8.10;;;;;;;-2.13;100.00;98923.58;106198;1275;1003061;-69
2023/02/12 03:06:31;;;;;;;20.00;8.10;;;;;;;-2.16;100.00;98918.16;106237;1275;1002914;-70
2023/02/12 03:09:08;;;;;;;17.50;8.00;;;;;;;-2.18;100.00;98925.25;106281;1275;1003657;-69
2023/02/12 03:11:37;;;;;;;17.30;7.20;;;;;;;-2.19;100.00;98930.06;106169;1274;1003812;-69
2023/02/12 03:14:16;;;;;;;17.10;7.60;;;;;;;-2.18;100.00;98930.42;106933;1275;22528;-69
2023/02/12 03:17:10;;;;;;;18.00;7.60;;;;;;;-2.19;100.00;98921.08;106286;1275;1003702;-70
2023/02/12 03:19:45;;;;;;;16.50;7.10;;;;;;;-2.20;100.00;98921.91;107027;1274;25310;-68
2023/02/12 03:22:17;;;;;;;18.10;7.80;;;;;;;-2.23;100.00;98922.13;106322;1274;1003064;-68
2023/02/12 03:24:50;;;;;;;17.60;8.30;;;;;;;-2.25;100.00;98924.19;107063;1274;25304;-71
2023/02/12 03:27:21;;;;;;;16.30;6.90;;;;;;;-2.26;100.00;98924.10;106860;1275;25420;-70
2023/02/12 03:29:50;;;;;;;17.50;7.40;;;;;;;-2.27;100.00;98923.81;106334;1274;1003507;-68
2023/02/12 03:33:00;;;;;;;18.20;7.70;;;;;;;-2.29;100.00;98922.40;106178;1274;1003639;-70
2023/02/12 03:35:34;;;;;;;15.70;7.70;;;;;;;-2.32;100.00;98911.52;106304;1274;1003265;-70
2023/02/12 03:38:15;;;;;;;15.60;7.40;;;;;;;-2.34;100.00;98909.90;107176;1275;24253;-69
2023/02/12 03:41:14;;;;;;;17.60;7.90;;;;;;;-2.38;100.00;98906.29;107008;1274;25447;-70
2023/02/12 03:44:00;;;;;;;19.00;7.60;;;;;;;-2.41;100.00;98905.98;107035;1275;22546;-69
2023/02/12 03:46:38;;;;;;;19.00;7.90;;;;;;;-2.42;100.00;98903.64;107070;1275;25681;-69
2023/02/12 03:49:10;;;;;;;20.10;8.40;;;;;;;-2.45;100.00;98897.52;107057;1275;24258;-69
2023/02/12 03:51:40;;;;;;;19.50;8.00;;;;;;;-2.50;100.00;98897.84;106288;1275;1002928;-69
2023/02/12 03:54:10;;;;;;;20.10;8.60;;;;;;;-2.53;100.00;98892.77;106894;1274;22521;-71
2023/02/12 03:56:44;;;;;;;16.30;7.50;;;;;;;-2.56;100.00;98893.52;107012;1275;25367;-71
2023/02/12 03:59:12;;;;;;;24.60;9.20;;;;;;;-2.60;100.00;98892.77;106227;1274;1003748;-70
2023/02/12 04:01:41;;;;;;;18.60;7.60;;;;;;;-2.64;100.00;98886.07;106242;1275;1002679;-69
2023/02/12 04:04:10;;;;;;;19.00;7.70;;;;;;;-2.70;100.00;98878.52;106974;1275;22552;-70
2023/02/12 04:06:40;;;;;;;17.10;7.70;;;;;;;-2.74;100.00;98877.42;106986;1275;23892;-69
2023/02/12 04:09:10;;;;;;;20.20;8.70;;;;;;;-2.79;100.00;98873.41;106903;1274;25418;-69
2023/02/12 04:11:57;;;;;;;19.60;7.90;;;;;;;-2.83;100.00;98866.64;107134;1275;22534;-71
2023/02/12 04:15:04;;;;;;;17.00;7.80;;;;;;;-2.87;100.00;98851.77;106300;1275;1003175;-70
2023/02/12 04:17:58;;;;;;;20.00;8.80;;;;;;;-2.91;100.00;98831.45;107132;1275;26514;-71
2023/02/12 04:20:52;;;;;;;22.90;9.30;;;;;;;-2.95;100.00;98815.84;107078;1275;24234;-70
2023/02/12 04:23:32;;;;;;;21.00;8.50;;;;;;;-2.99;100.00;98808.94;106862;1275;26471;-67
2023/02/12 04:26:19;;;;;;;21.80;8.40;;;;;;;-3.00;100.00;98796.14;106947;1275;25393;-69
2023/02/12 04:28:56;;;;;;;21.00;8.70;;;;;;;-3.01;100.00;98782.13;107009;1274;26620;-69
2023/02/12 04:31:30;;;;;;;20.00;8.40;;;;;;;-3.03;100.00;98771.34;106897;1275;24213;-69
2023/02/12 04:34:09;;;;;;;16.80;8.30;;;;;;;-3.04;100.00;98760.15;107045;1274;25517;-70
2023/02/12 04:37:06;;;;;;;20.20;8.90;;;;;;;-3.06;100.00;98754.27;107056;1275;22528;-69
2023/02/12 04:39:36;;;;;;;20.10;8.70;;;;;;;-3.09;100.00;98729.95;106207;1275;1003031;-70
2023/02/12 04:42:06;;;;;;;27.60;9.30;;;;;;;-3.10;100.00;98728.28;106925;1275;23115;-70
2023/02/12 04:44:40;;;;;;;21.60;9.40;;;;;;;-3.12;100.00;98720.48;106149;1274;1015890;-70
2023/02/12 04:47:13;;;;;;;20.30;9.00;;;;;;;-3.12;100.00;98717.38;106256;1274;1002919;-69
2023/02/12 04:49:42;;;;;;;23.80;9.10;;;;;;;-3.12;100.00;98712.92;106282;1275;1002906;-70
2023/02/12 04:52:10;;;;;;;23.90;9.40;;;;;;;-3.12;100.00;98706.74;107086;1275;25304;-70
2023/02/12 04:54:38;;;;;;;23.50;10.10;;;;;;;-3.11;100.00;98708.12;106995;1275;25334;-70
2023/02/12 04:57:08;;;;;;;23.40;10.30;;;;;;;-3.14;100.00;98699.14;106316;1275;1002914;-70
2023/02/12 04:59:37;;;;;;;25.30;9.80;;;;;;;-3.15;100.00;98699.80;106999;1274;25320;-70
2023/02/12 05:02:06;;;;;;;21.00;8.60;;;;;;;-3.15;100.00;98697.48;106984;1275;25429;-71
2023/02/12 05:04:35;;;;;;;20.30;8.90;;;;;;;-3.16;100.00;98691.16;107029;1274;25503;-70
2023/02/12 05:07:04;;;;;;;26.00;10.10;;;;;;;-3.14;100.00;98688.06;106290;1275;1003014;-68
2023/02/12 05:09:32;;;;;;;20.60;9.00;;;;;;;-3.13;100.00;98685.54;107019;1275;24823;-69
2023/02/12 05:12:06;;;;;;;23.00;9.00;;;;;;;-3.12;100.00;98679.30;106993;1275;23076;-69
2023/02/12 05:14:35;;;;;;;21.70;9.60;;;;;;;-3.12;100.00;98675.52;106953;1275;26617;-70
2023/02/12 05:17:03;;;;;;;20.40;9.00;;;;;;;-3.11;100.00;98670.02;107022;1274;25478;-70
2023/02/12 05:19:36;;;;;;;19.90;9.50;;;;;;;-3.12;100.00;98658.78;106294;1275;1003573;-68
2023/02/12 05:22:04;;;;;;;24.70;10.30;;;;;;;-3.12;100.00;98663.23;107127;1275;25301;-69
2023/02/12 05:24:33;;;;;;;22.10;10.40;;;;;;;-3.12;100.00;98662.33;107086;1275;24323;-69
2023/02/12 05:27:02;;;;;;;22.10;10.10;;;;;;;-3.11;100.00;98661.39;106318;1274;1002795;-69
2023/02/12 05:29:31;;;;;;;23.20;9.60;;;;;;;-3.10;100.00;98655.50;106301;1274;1003710;-69
2023/02/12 05:31:59;;;;;;;21.00;9.70;;;;;;;-3.10;100.00;98650.89;107117;1274;25255;-69
2023/02/12 05:34:28;;;;;;;21.80;9.20;;;;;;;-3.08;100.00;98648.63;106267;1275;1002820;-68
2023/02/12 05:36:57;;;;;;;27.10;11.00;;;;;;;-3.06;100.00;98635.39;107060;1275;25310;-69
2023/02/12 05:39:26;;;;;;;23.60;10.20;;;;;;;-3.06;100.00;98637.02;106288;1274;1002981;-69
2023/02/12 05:41:55;;;;;;;20.80;9.20;;;;;;;-3.07;100.00;98633.34;106368;1275;1003451;-71
2023/02/12 05:44:23;;;;;;;22.70;10.40;;;;;;;-3.06;100.00;98627.14;107107;1275;22534;-71
2023/02/12 05:46:51;;;;;;;22.00;10.10;;;;;;;-3.07;100.00;98623.86;107112;1275;22759;-69
2023/02/12 05:49:20;;;;;;;25.70;11.70;;;;;;;-3.08;100.00;98625.48;107049;1274;24221;-71
2023/02/12 05:51:48;;;;;;;23.70;11.40;;;;;;;-3.07;100.00;98612.38;106246;1274;1002841;-70
2023/02/12 05:54:17;;;;;;;23.70;10.90;;;;;;;-3.05;100.00;98607.84;107105;1275;25412;-70
2023/02/12 05:56:46;;;;;;;48.20;19.70;;;;;;;-3.03;100.00;98606.83;107105;1275;25439;-70
2023/02/12 05:59:17;;;;;;;28.30;12.90;;;;;;;-3.00;100.00;98598.15;106390;1275;1002889;-70
2023/02/12 06:01:47;;;;;;;27.60;13.30;;;;;;;-2.97;100.00;98593.63;106249;1275;1002878;-70
2023/02/12 06:04:18;;;;;;;27.20;13.20;;;;;;;-2.95;100.00;98587.83;107066;1275;22625;-70
2023/02/12 06:06:49;;;;;;;27.70;11.90;;;;;;;-2.92;100.00;98584.46;107041;1274;26482;-69
2023/02/12 06:09:18;;;;;;;25.10;11.00;;;;;;;-2.90;100.00;98579.73;106200;1275;1002923;-70
2023/02/12 06:11:49;;;;;;;24.30;10.90;;;;;;;-2.89;100.00;98566.92;106168;1275;1003400;-69
2023/02/12 06:14:18;;;;;;;25.60;10.90;;;;;;;-2.87;100.00;98558.61;106975;1275;26485;-70
2023/02/12 06:16:52;;;;;;;23.60;10.30;;;;;;;-2.83;100.00;98557.27;106937;1274;25418;-70
2023/02/12 06:19:20;;;;;;;26.00;11.60;;;;;;;-2.78;100.00;98548.75;107020;1274;24050;-69
2023/02/12 06:21:49;;;;;;;23.40;10.70;;;;;;;-2.72;100.00;98536.86;106934;1275;22623;-70
2023/02/12 06:24:18;;;;;;;25.80;11.10;;;;;;;-2.69;100.00;98524.90;107153;1274;25273;-69
2023/02/12 06:26:48;;;;;;;21.90;10.20;;;;;;;-2.65;100.00;98512.83;107044;1275;25350;-70
2023/02/12 06:29:20;;;;;;;24.60;11.80;;;;;;;-2.61;100.00;98500.15;107113;1275;26513;-70
2023/02/12 06:31:49;;;;;;;25.00;11.20;;;;;;;-2.58;100.00;98497.56;106987;1274;22540;-70
2023/02/12 06:34:18;;;;;;;23.20;10.70;;;;;;;-2.53;100.00;98488.55;106860;1275;25259;-70
2023/02/12 06:36:46;;;;;;;27.90;11.40;;;;;;;-2.48;100.00;98471.35;107132;1275;25542;-72
2023/02/12 06:39:15;;;;;;;24.80;11.70;;;;;;;-2.43;100.00;98457.84;107127;1275;25265;-70
2023/02/12 06:41:44;;;;;;;26.60;12.00;;;;;;;-2.39;100.00;98449.98;106981;1275;22648;-71
2023/02/12 06:44:13;;;;;;;26.40;12.70;;;;;;;-2.37;100.00;98442.70;106944;1275;22530;-70
2023/02/12 06:46:41;;;;;;;26.90;12.60;;;;;;;-2.35;100.00;98429.67;107080;1274;25334;-72
2023/02/12 06:49:10;;;;;;;24.30;11.50;;;;;;;-2.31;100.00;98423.54;107158;1274;25430;-70
2023/02/12 06:51:40;;;;;;;23.80;11.60;;;;;;;-2.28;100.00;98417.10;107054;1275;24223;-69
2023/02/12 06:54:13;;;;;;;23.70;11.20;;;;;;;-2.24;100.00;98406.33;107040;1275;25291;-70
2023/02/12 06:56:44;;;;;;;25.10;10.20;;;;;;;-2.19;100.00;98393.92;106393;1274;1002901;-70
2023/02/12 06:59:14;;;;;;;25.30;12.50;;;;;;;-2.14;100.00;98351.63;106985;1274;22527;-69
2023/02/12 07:01:45;;;;;;;25.50;11.50;;;;;;;-2.09;100.00;98279.16;107076;1275;25423;-70
2023/02/12 07:04:14;;;;;;;24.60;12.00;;;;;;;-2.03;100.00;98265.96;107149;1275;26519;-69
2023/02/12 07:06:43;;;;;;;26.80;12.60;;;;;;;-1.95;100.00;98210.11;107065;1274;25504;-70
2023/02/12 07:09:12;;;;;;;28.90;12.90;;;;;;;-1.85;100.00;98167.55;106239;1274;1003776;-70
2023/02/12 07:11:41;;;;;;;32.50;14.40;;;;;;;-1.76;100.00;98127.18;107077;1274;25430;-70
2023/02/12 07:14:14;;;;;;;31.60;14.60;;;;;;;-1.64;100.00;98098.42;107013;1274;26497;-70
2023/02/12 07:16:43;;;;;;;28.20;13.50;;;;;;;-1.51;100.00;98070.89;107061;1274;24287;-69
2023/02/12 07:19:13;;;;;;;28.60;14.10;;;;;;;-1.40;100.00;98051.05;107026;1275;25368;-69
2023/02/12 07:21:42;;;;;;;30.50;15.20;;;;;;;-1.29;100.00;98028.13;107047;1274;26601;-71
2023/02/12 07:24:18;;;;;;;30.30;14.60;;;;;;;-1.18;100.00;98006.19;107062;1275;26528;-72
2023/02/12 07:26:47;;;;;;;30.90;13.70;;;;;;;-1.07;100.00;97987.73;107144;1274;26487;-72
2023/02/12 07:29:16;;;;;;;30.10;14.90;;;;;;;-0.98;100.00;97977.75;107078;1274;23433;-70
2023/02/12 07:31:45;;;;;;;32.00;16.20;;;;;;;-0.87;100.00;97960.85;106929;1274;25308;-70
2023/02/12 07:34:14;;;;;;;30.90;16.20;;;;;;;-0.75;100.00;97950.63;106896;1274;22539;-69
2023/02/12 07:36:45;;;;;;;30.90;16.70;;;;;;;-0.64;100.00;97941.95;106873;1275;25365;-70
2023/02/12 07:39:14;;;;;;;28.70;14.00;;;;;;;-0.56;100.00;97929.50;107133;1274;25381;-69
2023/02/12 07:41:43;;;;;;;26.80;15.10;;;;;;;-0.49;100.00;97916.76;107147;1274;24278;-70
2023/02/12 07:44:14;;;;;;;36.20;19.40;;;;;;;-0.44;100.00;97908.67;107156;1274;25253;-69
2023/02/12 07:46:44;;;;;;;24.70;11.70;;;;;;;-0.43;100.00;97906.15;107172;1253;22533;-69
2023/02/12 07:49:20;;;;;;;23.90;12.50;;;;;;;-0.41;100.00;97900.00;106136;1274;1003771;-71
2023/02/12 07:51:49;;;;;;;19.70;9.70;;;;;;;-0.41;100.00;97909.77;107081;1274;22741;-71
2023/02/12 07:54:18;;;;;;;14.40;7.30;;;;;;;-0.43;100.00;97921.75;107138;1274;25253;-70
2023/02/12 07:56:46;;;;;;;19.20;9.30;;;;;;;-0.46;100.00;97928.80;106916;1274;25361;-71
2023/02/12 07:59:17;;;;;;;25.70;11.60;;;;;;;-0.44;100.00;97929.55;107129;1274;26582;-71
2023/02/12 08:01:47;;;;;;;26.90;11.60;;;;;;;-0.38;100.00;97918.15;106959;1274;22527;-70
2023/02/12 08:04:18;;;;;;;19.80;7.20;;;;;;;-0.29;100.00;97906.37;107065;1275;22524;-71
2023/02/12 08:06:48;;;;;;;25.80;10.20;;;;;;;-0.22;100.00;97899.91;107121;1274;25435;-69
2023/02/12 08:09:23;;;;;;;25.20;10.90;;;;;;;-0.21;100.00;97901.70;107216;1275;22638;-71
2023/02/12 08:11:52;;;;;;;24.10;9.00;;;;;;;-0.23;100.00;97915.61;107136;1275;23997;-75
2023/02/12 08:14:21;;;;;;;28.00;8.60;;;;;;;-0.11;100.00;97912.80;107183;1275;25386;-71
2023/02/12 08:16:50;;;;;;;19.90;6.70;;;;;;;0.15;100.00;97908.26;107169;1274;25255;-73
2023/02/12 08:19:19;;;;;;;28.20;11.70;;;;;;;0.40;100.00;97906.46;106430;1274;1003130;-74
2023/02/12 08:21:54;;;;;;;15.90;6.20;;;;;;;0.56;100.00;97922.00;107188;1274;25504;-71
2023/02/12 08:24:23;;;;;;;33.60;13.70;;;;;;;0.65;100.00;97963.45;106948;1275;22557;-71
2023/02/12 08:26:52;;;;;;;37.50;17.10;;;;;;;0.78;100.00;98016.23;107126;1274;22536;-73
2023/02/12 08:29:24;;;;;;;21.80;8.40;;;;;;;0.92;100.00;98070.86;107200;1274;25358;-71
2023/02/12 08:31:58;;;;;;;9.70;4.30;;;;;;;1.02;100.00;98146.09;107181;1274;22543;-72
2023/02/12 08:34:29;;;;;;;12.90;6.30;;;;;;;1.05;100.00;98225.27;106455;1274;1003527;-71
2023/02/12 08:36:58;;;;;;;16.40;6.20;;;;;;;1.11;100.00;98318.09;107052;1274;25300;-71
2023/02/12 08:39:27;;;;;;;12.00;5.80;;;;;;;1.17;100.00;98406.89;106921;1274;25357;-73
2023/02/12 08:41:58;;;;;;;17.80;9.20;;;;;;;1.22;100.00;98504.42;107158;1275;25420;-74
2023/02/12 08:44:28;;;;;;;7.70;4.80;;;;;;;1.26;100.00;98596.95;106866;1274;26516;-71
2023/02/12 08:46:57;;;;;;;15.60;7.20;;;;;;;1.32;100.00;98670.36;107081;1275;25499;-71
2023/02/12 08:49:27;;;;;;;7.00;3.90;;;;;;;1.44;100.00;98716.13;107156;1275;22549;-70
2023/02/12 08:51:57;;;;;;;3.50;3.20;;;;;;;1.56;100.00;98762.23;106417;1274;1003233;-71
2023/02/12 08:54:28;;;;;;;6.40;3.40;;;;;;;1.63;100.00;98821.05;106399;1274;1002600;-71
2023/02/12 08:56:59;;;;;;;4.80;3.20;;;;;;;1.74;100.00;98868.38;107147;1274;25310;-73
2023/02/12 08:59:28;;;;;;;5.90;2.80;;;;;;;1.83;100.00;98900.89;107109;1274;22583;-72
2023/02/12 09:01:59;;;;;;;8.10;3.60;;;;;;;1.91;100.00;98932.48;107070;1275;25410;-69
2023/02/12 09:04:30;;;;;;;9.60;4.90;;;;;;;2.02;100.00;98980.94;107154;1274;25277;-70
2023/02/12 09:06:58;;;;;;;8.10;4.50;;;;;;;2.07;100.00;99047.28;107085;1274;22663;-69
2023/02/12 09:09:27;;;;;;;4.70;3.00;;;;;;;2.01;100.00;99142.80;107155;1274;22529;-70
2023/02/12 09:11:59;;;;;;;8.00;3.10;;;;;;;1.96;100.00;99229.08;106445;1275;1002584;-71
2023/02/12 09:14:28;;;;;;;14.20;3.90;;;;;;;1.76;100.00;99302.45;107086;1274;26512;-71
2023/02/12 09:16:57;;;;;;;18.00;8.60;;;;;;;1.59;100.00;99345.10;106374;1275;1003280;-72
2023/02/12 09:19:26;;;;;;;13.30;6.50;;;;;;;1.61;100.00;99370.75;106375;1275;1002591;-69
2023/02/12 09:21:55;;;;;;;8.80;5.40;;;;;;;1.73;100.00;99402.23;107126;1275;25316;-71
2023/02/12 09:24:26;;;;;;;5.90;3.70;;;;;;;1.73;100.00;99454.08;106383;1275;1003654;-70
2023/02/12 09:26:56;;;;;;;12.70;5.40;;;;;;;1.51;100.00;99546.54;107017;1275;25369;-72
2023/02/12 09:29:24;;;;;;;5.90;3.40;;;;;;;1.42;100.00;99596.11;107079;1275;22627;-70
2023/02/12 09:31:53;;;;;;;5.90;4.10;;;;;;;1.42;100.00;99611.58;106304;1275;1003588;-71
2023/02/12 09:34:23;;;;;;;35.40;17.20;;;;;;;1.38;100.00;99635.50;107054;1275;25382;-71
2023/02/12 09:36:53;;;;;;;13.00;4.70;;;;;;;1.21;100.00;99676.26;106349;1275;1002946;-70
2023/02/12 09:39:22;;;;;;;18.20;8.80;;;;;;;0.96;100.00;99717.45;107030;1275;25256;-70
2023/02/12 09:41:56;;;;;;;5.20;3.50;;;;;;;0.70;100.00;99747.95;106309;1275;1002850;-69
2023/02/12 09:44:36;;;;;;;6.00;3.80;;;;;;;0.51;100.00;99750.81;107051;1275;25357;-72
2023/02/12 09:47:08;;;;;;;4.20;2.50;;;;;;;0.37;100.00;99758.91;107044;1275;25389;-72
2023/02/12 09:50:17;;;;;;;5.20;3.10;;;;;;;0.28;100.00;99762.78;107082;1275;25257;-70
2023/02/12 09:52:46;;;;;;;4.00;2.80;;;;;;;0.24;100.00;99759.30;106303;1275;1002597;-70
2023/02/12 09:55:15;;;;;;;4.00;2.40;;;;;;;0.31;100.00;99743.37;106880;1275;25347;-70
2023/02/12 09:57:44;;;;;;;6.20;3.20;;;;;;;0.36;100.00;99720.34;106382;1275;1003101;-72
2023/02/12 10:00:30;;;;;;;5.90;2.60;;;;;;;0.38;100.00;99714.30;106200;1275;1003119;-70
2023/02/12 10:03:00;;;;;;;18.40;7.00;;;;;;;0.33;100.00;99713.26;106228;1275;1003424;-70
2023/02/12 10:05:40;;;;;;;17.80;9.40;;;;;;;0.27;100.00;99730.73;106397;1275;1003622;-72
2023/02/12 10:08:44;;;;;;;8.70;4.10;;;;;;;0.36;100.00;99733.08;106978;1275;24225;-69
2023/02/12 10:11:17;;;;;;;17.10;8.60;;;;;;;0.65;100.00;99727.59;107100;1275;25360;-71
2023/02/12 10:13:52;;;;;;;23.80;10.70;;;;;;;0.95;100.00;99727.83;107082;1275;25265;-70
2023/02/12 10:16:42;;;;;;;49.70;24.30;;;;;;;1.20;100.00;99740.06;107066;1275;22492;-70
2023/02/12 10:19:48;;;;;;;16.20;7.10;;;;;;;1.41;100.00;99749.10;107013;1275;22575;-70
2023/02/12 10:22:24;;;;;;;3.40;3.00;;;;;;;1.45;100.00;99780.80;107090;1275;24243;-70
2023/02/12 10:25:02;;;;;;;18.80;6.20;;;;;;;1.29;100.00;99815.77;107068;1275;25372;-71
2023/02/12 10:27:45;;;;;;;2.60;2.00;;;;;;;1.12;100.00;99844.77;107103;1274;25379;-72
2023/02/12 10:30:46;;;;;;;7.30;3.20;;;;;;;0.90;100.00;99858.10;106445;1251;1002904;-71
2023/02/12 10:33:20;;;;;;;70.20;23.50;;;;;;;0.71;100.00;99861.99;107129;1275;25473;-73
2023/02/12 10:35:52;;;;;;;7.10;3.60;;;;;;;0.60;100.00;99872.70;106383;1274;1003085;-71
2023/02/12 10:38:25;;;;;;;4.20;1.60;;;;;;;0.38;100.00;99878.71;107132;1275;25256;-70
2023/02/12 10:40:56;;;;;;;1.50;1.40;;;;;;;0.13;100.00;99873.23;107166;1251;24221;-71
2023/02/12 10:43:25;;;;;;;3.60;2.20;;;;;;;-0.06;100.00;99873.32;107158;1274;25353;-71
2023/02/12 10:45:53;;;;;;;3.20;1.90;;;;;;;-0.09;100.00;99869.09;106315;1274;1002978;-71
2023/02/12 10:48:35;;;;;;;6.70;3.10;;;;;;;-0.12;100.00;99884.15;106187;1275;1015246;-71
2023/02/12 10:51:16;;;;;;;19.90;8.30;;;;;;;-0.24;100.00;99900.27;107118;1275;22550;-71
2023/02/12 10:53:45;;;;;;;12.90;6.50;;;;;;;-0.34;100.00;99912.95;106428;1275;1002983;-71
2023/02/12 10:56:23;;;;;;;7.30;4.50;;;;;;;-0.40;100.00;99909.11;106386;1275;1002847;-70
2023/02/12 10:58:54;;;;;;;11.50;4.40;;;;;;;-0.47;100.00;99919.30;106164;1274;1003152;-70
2023/02/12 11:01:29;;;;;;;20.10;6.80;;;;;;;-0.57;100.00;99929.58;107128;1274;23865;-70
2023/02/12 11:04:00;;;;;;;5.10;3.50;;;;;;;-0.59;100.00;99931.08;107075;1275;24237;-71
2023/02/12 11:06:31;;;;;;;4.00;2.50;;;;;;;-0.60;100.00;99937.23;106951;1274;24460;-72
2023/02/12 11:09:00;;;;;;;11.20;4.40;;;;;;;-0.60;100.00;99944.12;106377;1274;1003213;-72
2023/02/12 11:11:30;;;;;;;9.20;3.50;;;;;;;-0.62;100.00;99948.48;107091;1274;26583;-71
2023/02/12 11:14:02;;;;;;;7.00;4.50;;;;;;;-0.62;100.00;99961.77;107169;1274;25364;-72
2023/02/12 11:16:40;;;;;;;13.30;4.50;;;;;;;-0.63;100.00;99973.55;107152;1274;22686;-72
2023/02/12 11:19:20;;;;;;;9.90;3.70;;;;;;;-0.62;100.00;99986.04;107095;1275;25412;-72
2023/02/12 11:21:50;;;;;;;6.90;3.70;;;;;;;-0.64;100.00;99990.54;106891;1275;25415;-72
2023/02/12 11:24:37;;;;;;;6.90;3.60;;;;;;;-0.67;100.00;100000.71;106744;1274;25558;-73
2023/02/12 11:27:14;;;;;;;3.40;2.30;;;;;;;-0.69;100.00;100009.16;106850;1275;22540;-74
2023/02/12 11:29:47;;;;;;;4.80;2.10;;;;;;;-0.77;100.00;100505.36;107033;1275;25583;-74
2023/02/12 11:32:17;;;;;;;9.90;5.20;;;;;;;-0.89;100.00;100831.15;106892;1275;25416;-72
2023/02/12 11:35:09;;;;;;;14.10;5.90;;;;;;;-0.97;100.00;100826.80;106272;1275;1003082;-70